Time;durP1;ratioP1;P1;durP2;ratioP2;P2;SDS_P1;SDS_P2;PMS_P1;PMS_P2;Temp;Humidity;BMP_temperature;BMP_pressure;BME280_temperature;BME280_humidity;BME280_pressure;Samples;Min_cycle;Max_cycle;Signal;HPM_P1;HPM_P2
2022/12/09 00:01:16;;;;;;;63.38;20.65;;;;;;;5.61;70.16;100832.81;5029017;28;20037;-45
2022/12/09 00:03:42;;;;;;;56.25;20.13;;;;;;;5.68;70.51;100824.41;5029610;28;20428;-43
2022/12/09 00:06:21;;;;;;;59.17;20.95;;;;;;;5.76;70.21;100816.91;5030343;28;20025;-42
2022/12/09 00:08:47;;;;;;;61.75;20.67;;;;;;;5.56;70.67;100823.13;5029833;28;20022;-46
2022/12/09 00:11:12;;;;;;;65.28;21.40;;;;;;;5.54;70.60;100815.34;5029348;28;20014;-43
2022/12/09 00:13:38;;;;;;;55.58;19.70;;;;;;;5.21;71.35;100821.97;5029738;28;20381;-49
2022/12/09 00:16:08;;;;;;;52.05;19.08;;;;;;;5.41;70.24;100820.94;5029151;28;20032;-44
2022/12/09 00:18:35;;;;;;;51.85;19.58;;;;;;;5.28;70.22;100822.25;5029327;28;20029;-44
2022/12/09 00:21:26;;;;;;;54.17;19.52;;;;;;;5.08;70.80;100822.38;5028950;28;20112;-48
2022/12/09 00:23:52;;;;;;;62.30;19.77;;;;;;;4.87;71.88;100819.94;5029747;28;20382;-44
2022/12/09 00:26:20;;;;;;;48.60;18.40;;;;;;;5.22;70.96;100821.16;5029245;28;20493;-44
2022/12/09 00:28:45;;;;;;;48.47;18.40;;;;;;;5.29;70.89;100813.66;5029654;28;20029;-45
2022/12/09 00:31:16;;;;;;;48.47;17.95;;;;;;;5.16;70.71;100816.66;5032744;28;20116;-43
2022/12/09 00:33:43;;;;;;;50.90;18.58;;;;;;;5.32;70.42;100815.47;5033544;28;20025;-43
2022/12/09 00:36:10;;;;;;;51.50;19.23;;;;;;;5.43;70.62;100818.41;5033319;28;20100;-43
2022/12/09 00:38:36;;;;;;;117.78;19.95;;;;;;;5.13;70.92;100826.88;5033213;28;20059;-45
2022/12/09 00:41:02;;;;;;;71.78;18.83;;;;;;;5.23;70.90;100826.38;5032398;28;20017;-44
2022/12/09 00:43:28;;;;;;;88.10;19.20;;;;;;;5.25;70.59;100827.28;5033335;28;20061;-45
2022/12/09 00:45:53;;;;;;;160.55;20.85;;;;;;;5.07;70.50;100823.19;5032832;28;20059;-43
2022/12/09 00:48:19;;;;;;;53.83;18.50;;;;;;;5.25;71.08;100821.25;5031939;28;20108;-44
2022/12/09 00:50:45;;;;;;;75.82;17.73;;;;;;;5.31;70.68;100822.31;5033220;28;20351;-48
2022/12/09 00:53:11;;;;;;;105.75;15.85;;;;;;;5.08;71.10;100822.38;5034549;28;20060;-49
2022/12/09 00:55:37;;;;;;;65.97;14.70;;;;;;;4.98;71.32;100828.06;5033927;28;20029;-44
2022/12/09 00:58:02;;;;;;;103.03;16.10;;;;;;;5.13;70.91;100832.03;5034000;28;20025;-48
2022/12/09 01:00:28;;;;;;;128.57;15.18;;;;;;;5.15;71.40;100837.28;5033536;28;20045;-43
2022/12/09 01:02:53;;;;;;;51.65;13.60;;;;;;;5.36;70.38;100838.03;5034018;28;20060;-45
2022/12/09 01:05:18;;;;;;;82.53;12.70;;;;;;;5.31;70.27;100843.00;5033743;28;20041;-45
2022/12/09 01:07:43;;;;;;;132.57;15.15;;;;;;;5.24;70.32;100838.50;5033750;28;20025;-44
2022/12/09 01:10:09;;;;;;;89.10;12.38;;;;;;;5.21;70.66;100840.06;5033609;28;20124;-48
2022/12/09 01:12:34;;;;;;;74.20;11.98;;;;;;;5.28;70.93;100839.44;5034189;28;20029;-43
2022/12/09 01:15:00;;;;;;;47.03;11.63;;;;;;;5.35;70.52;100843.13;5034031;28;20389;-43
2022/12/09 01:17:25;;;;;;;38.38;11.40;;;;;;;5.46;70.36;100837.50;5033486;28;20075;-44
2022/12/09 01:19:51;;;;;;;52.42;10.98;;;;;;;5.46;70.49;100837.50;5031587;28;20025;-43
2022/12/09 01:22:16;;;;;;;108.40;13.93;;;;;;;5.29;70.70;100836.06;5032442;28;20030;-43
2022/12/09 01:24:41;;;;;;;67.53;13.05;;;;;;;5.25;70.76;100841.91;5032632;28;20029;-42
2022/12/09 01:27:07;;;;;;;53.17;13.55;;;;;;;5.40;70.28;100845.03;5032337;28;20425;-43
2022/12/09 01:29:32;;;;;;;50.35;13.65;;;;;;;5.45;70.40;100846.06;5032184;28;20021;-45
2022/12/09 01:31:58;;;;;;;41.47;12.45;;;;;;;5.44;70.46;100841.72;5032095;28;20481;-43
2022/12/09 01:34:23;;;;;;;47.92;12.88;;;;;;;5.45;70.66;100845.19;5032647;28;20025;-43
2022/12/09 01:36:48;;;;;;;41.35;12.98;;;;;;;5.58;70.05;100842.19;5032269;28;20063;-49
2022/12/09 01:39:15;;;;;;;39.35;12.55;;;;;;;5.48;70.06;100845.31;5033132;28;20075;-42
2022/12/09 01:41:40;;;;;;;42.00;13.65;;;;;;;5.58;69.68;100845.66;5032723;28;20409;-43
2022/12/09 01:44:19;;;;;;;35.40;13.57;;;;;;;5.54;70.43;100842.91;5032828;28;20029;-43
2022/12/09 01:46:45;;;;;;;33.28;13.05;;;;;;;5.49;69.92;100850.50;5032915;28;20033;-42
2022/12/09 01:49:24;;;;;;;33.22;13.27;;;;;;;5.63;69.53;100845.78;5033839;28;20432;-41
2022/12/09 01:52:15;;;;;;;34.47;13.45;;;;;;;5.55;69.32;100842.09;5032012;28;20075;-41
2022/12/09 01:54:43;;;;;;;27.50;12.75;;;;;;;5.19;69.81;100846.88;5031882;28;20033;-44
2022/12/09 01:57:09;;;;;;;29.13;13.02;;;;;;;5.30;69.89;100836.09;5031908;28;20026;-42
2022/12/09 01:59:35;;;;;;;34.95;13.48;;;;;;;5.45;69.79;100835.72;5032568;28;20385;-47
2022/12/09 02:02:03;;;;;;;33.85;14.23;;;;;;;5.26;70.06;100831.63;5031710;28;20040;-45
2022/12/09 02:04:33;;;;;;;37.72;15.02;;;;;;;5.38;69.87;100836.34;5031533;28;20029;-43
2022/12/09 02:07:01;;;;;;;33.72;14.18;;;;;;;5.48;69.89;100832.38;5031491;28;20422;-47
2022/12/09 02:09:27;;;;;;;33.92;13.38;;;;;;;5.23;69.20;100830.69;5031241;28;20539;-44
2022/12/09 02:12:03;;;;;;;32.75;12.93;;;;;;;5.41;69.63;100830.41;5030853;28;20034;-44
2022/12/09 02:14:44;;;;;;;37.97;14.88;;;;;;;5.51;69.92;100832.47;5030997;28;20028;-42
2022/12/09 02:17:30;;;;;;;39.50;15.38;;;;;;;5.43;70.35;100831.34;5030794;28;20495;-44
2022/12/09 02:20:05;;;;;;;38.20;14.40;;;;;;;5.47;69.69;100831.50;5031152;28;20033;-47
2022/12/09 02:22:38;;;;;;;42.20;16.13;;;;;;;5.52;69.40;100826.47;5030741;28;20049;-46
2022/12/09 02:25:13;;;;;;;38.30;14.98;;;;;;;5.55;69.51;100821.41;5031777;28;20104;-44
2022/12/09 02:27:56;;;;;;;;;;;;;;;5.56;69.42;100818.84;5031352;28;20030;-42
2022/12/09 02:30:30;;;;;;;40.65;15.65;;;;;;;5.54;69.67;100820.53;5030663;28;20010;-47
2022/12/09 02:33:32;;;;;;;42.85;15.98;;;;;;;5.63;69.21;100810.47;5031091;28;20420;-44
2022/12/09 02:36:06;;;;;;;41.10;15.80;;;;;;;5.61;69.75;100811.25;5031055;28;20021;-46
2022/12/09 02:38:32;;;;;;;46.30;17.42;;;;;;;5.50;69.74;100812.59;5033146;28;20034;-43
2022/12/09 02:41:29;;;;;;;45.83;16.58;;;;;;;5.47;69.84;100818.56;5032098;28;20018;-44
2022/12/09 02:44:12;;;;;;;43.58;16.48;;;;;;;5.59;69.55;100815.50;5026669;28;20086;-42
2022/12/09 02:46:39;;;;;;;45.20;16.40;;;;;;;5.41;69.94;100814.91;5030580;28;20556;-43
2022/12/09 02:49:05;;;;;;;44.60;16.50;;;;;;;5.30;69.34;100819.72;5030584;28;20393;-43
2022/12/09 02:51:34;;;;;;;47.70;16.08;;;;;;;5.25;69.83;100823.81;5031059;28;20025;-43
2022/12/09 02:54:08;;;;;;;43.95;16.20;;;;;;;5.39;69.08;100825.19;5034412;28;20090;-43
2022/12/09 02:56:33;;;;;;;41.25;15.77;;;;;;;5.31;69.29;100822.31;5031906;28;20330;-41
2022/12/09 02:58:59;;;;;;;39.55;15.75;;;;;;;5.30;69.13;100822.31;5030313;28;20036;-46
2022/12/09 03:01:36;;;;;;;41.60;15.57;;;;;;;5.31;68.86;100811.09;5030090;28;20021;-43
2022/12/09 03:04:03;;;;;;;42.50;15.27;;;;;;;5.17;69.15;100805.50;5030400;28;20030;-45
2022/12/09 03:06:40;;;;;;;43.63;14.90;;;;;;;5.19;69.50;100809.00;5031239;28;20033;-45
2022/12/09 03:09:12;;;;;;;40.65;15.30;;;;;;;5.23;68.78;100807.41;5030551;28;20068;-47
2022/12/09 03:11:39;;;;;;;41.80;15.23;;;;;;;5.20;69.01;100804.72;5030000;28;20086;-43
2022/12/09 03:14:17;;;;;;;42.92;14.57;;;;;;;5.24;68.85;100797.13;5030220;28;20163;-46
2022/12/09 03:16:59;;;;;;;43.65;15.20;;;;;;;5.21;69.47;100806.47;5030104;28;20481;-44
2022/12/09 03:22:02;;;;;;;43.17;14.68;;;;;;;5.34;68.67;100806.06;5028444;28;20068;-38
2022/12/09 03:24:51;;;;;;;46.83;15.20;;;;;;;5.32;68.93;100798.25;5035221;28;20477;-38
2022/12/09 03:27:26;;;;;;;43.15;14.82;;;;;;;5.37;69.39;100800.97;5034963;28;20051;-42
2022/12/09 03:29:54;;;;;;;43.53;14.82;;;;;;;5.31;69.38;100804.22;5033879;28;20029;-41
2022/12/09 03:32:24;;;;;;;42.05;14.23;;;;;;;5.40;69.15;100798.50;5031579;28;20389;-39
2022/12/09 03:34:53;;;;;;;48.13;15.63;;;;;;;5.35;69.41;100804.34;5031795;28;20045;-42
2022/12/09 03:37:19;;;;;;;43.10;14.27;;;;;;;5.35;69.07;100799.19;5030500;28;20045;-44
2022/12/09 03:39:47;;;;;;;46.35;14.75;;;;;;;5.22;69.52;100795.31;5030181;28;20018;-42
2022/12/09 03:42:21;;;;;;;42.95;14.38;;;;;;;5.32;69.29;100787.91;5029705;28;20132;-42
2022/12/09 03:44:52;;;;;;;42.88;14.07;;;;;;;5.27;69.21;100798.91;5030148;28;20051;-39
2022/12/09 03:47:18;;;;;;;45.03;14.85;;;;;;;5.31;68.60;100793.91;5028871;28;20382;-41
2022/12/09 03:49:43;;;;;;;40.42;13.70;;;;;;;5.18;69.38;100791.75;5045604;28;20025;-40
2022/12/09 03:52:38;;;;;;;41.45;13.27;;;;;;;5.16;68.55;100792.53;5029832;28;20029;-38
2022/12/09 03:55:19;;;;;;;35.50;12.30;;;;;;;5.12;68.45;100782.91;5027727;28;20094;-40
2022/12/09 03:57:49;;;;;;;37.75;12.95;;;;;;;5.06;68.90;100780.13;5029818;28;20695;-38
2022/12/09 04:00:16;;;;;;;41.53;12.95;;;;;;;5.11;68.80;100791.50;5029951;28;20025;-39
2022/12/09 04:02:42;;;;;;;42.00;13.30;;;;;;;5.07;69.34;100792.19;5029792;28;20049;-43
2022/12/09 04:05:07;;;;;;;41.22;12.82;;;;;;;5.17;68.77;100787.41;5032771;28;20041;-38
2022/12/09 04:07:33;;;;;;;37.67;12.48;;;;;;;5.19;68.51;100793.50;5033938;28;20034;-44
2022/12/09 04:09:58;;;;;;;43.20;13.77;;;;;;;5.08;68.57;100784.50;5033547;28;20068;-42
2022/12/09 04:12:23;;;;;;;45.58;13.80;;;;;;;5.11;68.98;100783.75;5033916;28;20108;-40
2022/12/09 04:14:49;;;;;;;44.78;13.52;;;;;;;5.12;69.19;100785.50;5034031;28;20474;-39
2022/12/09 04:17:14;;;;;;;45.15;13.95;;;;;;;5.23;69.16;100781.56;5034037;28;20425;-40
2022/12/09 04:19:39;;;;;;;41.45;13.13;;;;;;;5.22;68.66;100779.81;5033621;28;20505;-44
2022/12/09 04:22:04;;;;;;;43.88;13.57;;;;;;;5.20;68.75;100787.50;5033455;28;20488;-39
2022/12/09 04:24:30;;;;;;;41.75;13.02;;;;;;;5.25;69.04;100785.06;5033358;28;20036;-42
2022/12/09 04:26:55;;;;;;;45.35;13.43;;;;;;;5.30;68.74;100791.28;5034251;28;20084;-40
2022/12/09 04:29:20;;;;;;;48.35;13.18;;;;;;;4.90;69.54;100784.75;5033752;28;20565;-38
2022/12/09 04:31:46;;;;;;;42.15;13.13;;;;;;;5.18;68.63;100788.28;5033276;28;20104;-37
2022/12/09 04:34:11;;;;;;;40.53;12.57;;;;;;;5.22;68.68;100784.97;5033445;28;20433;-39
2022/12/09 04:36:37;;;;;;;39.25;12.15;;;;;;;5.25;68.56;100785.06;5033400;28;20029;-40
2022/12/09 04:39:02;;;;;;;36.90;12.27;;;;;;;5.16;68.14;100779.59;5033659;28;20116;-39
2022/12/09 04:41:28;;;;;;;41.47;12.57;;;;;;;4.73;68.68;100788.47;5033043;28;20040;-39
2022/12/09 04:43:53;;;;;;;36.17;11.85;;;;;;;4.98;68.33;100779.84;5033589;28;20055;-40
2022/12/09 04:46:18;;;;;;;40.30;12.15;;;;;;;4.94;67.82;100785.72;5034255;28;20412;-39
2022/12/09 04:48:44;;;;;;;37.42;11.38;;;;;;;5.05;68.67;100780.94;5034104;28;20477;-38
2022/12/09 04:51:11;;;;;;;42.67;13.32;;;;;;;4.82;69.03;100775.84;5034001;28;20117;-40
2022/12/09 04:53:37;;;;;;;44.97;12.40;;;;;;;5.05;67.69;100768.03;5034296;28;20056;-40
2022/12/09 04:56:19;;;;;;;39.28;12.77;;;;;;;5.05;68.90;100779.25;5035228;28;20116;-39
2022/12/09 04:58:46;;;;;;;42.10;12.50;;;;;;;5.08;68.39;100781.91;5035629;28;20052;-39
2022/12/09 05:01:13;;;;;;;43.55;13.10;;;;;;;5.06;68.02;100782.72;5036395;28;20048;-39
2022/12/09 05:03:39;;;;;;;46.28;13.20;;;;;;;5.00;68.60;100782.50;5035951;28;20040;-38
2022/12/09 05:06:09;;;;;;;38.28;12.50;;;;;;;5.04;68.80;100776.59;5037281;28;20031;-39
2022/12/09 05:08:34;;;;;;;42.40;13.40;;;;;;;5.00;68.06;100782.50;5034306;28;20088;-41
2022/12/09 05:11:00;;;;;;;40.15;12.00;;;;;;;4.88;68.17;100778.66;5034158;28;20520;-41
2022/12/09 05:13:26;;;;;;;38.17;12.43;;;;;;;4.90;68.31;100765.78;5033655;28;20025;-39
2022/12/09 05:16:13;;;;;;;35.78;12.23;;;;;;;4.95;68.28;100773.69;5033377;28;20393;-38
2022/12/09 05:18:39;;;;;;;38.47;12.73;;;;;;;4.85;68.23;100775.09;5032604;28;20465;-43
2022/12/09 05:21:11;;;;;;;42.35;12.88;;;;;;;4.88;69.11;100776.06;5032416;28;20136;-42
2022/12/09 05:23:37;;;;;;;41.88;12.82;;;;;;;4.93;68.57;100776.25;5032376;28;20041;-44
2022/12/09 05:26:08;;;;;;;36.17;12.45;;;;;;;4.80;68.23;100769.78;5032266;28;20038;-39
2022/12/09 05:28:34;;;;;;;41.42;13.52;;;;;;;4.62;69.05;100766.56;5032377;28;20156;-40
2022/12/09 05:31:04;;;;;;;44.10;14.30;;;;;;;4.88;67.85;100764.84;5032022;28;20100;-40
2022/12/09 05:33:30;;;;;;;39.97;13.30;;;;;;;4.87;68.28;100769.16;5047674;28;20402;-39
2022/12/09 05:35:55;;;;;;;38.00;13.65;;;;;;;4.74;69.08;100774.72;5032525;28;20027;-38
2022/12/09 05:38:21;;;;;;;42.33;13.30;;;;;;;4.88;68.57;100768.31;5032466;28;20429;-38
2022/12/09 05:40:47;;;;;;;37.90;13.70;;;;;;;4.94;68.06;100770.22;5031519;28;20398;-39
2022/12/09 05:43:12;;;;;;;40.30;13.93;;;;;;;4.69;68.24;100768.53;5031827;28;20033;-44
2022/12/09 05:45:37;;;;;;;37.97;13.32;;;;;;;4.39;68.95;100765.72;5031982;28;20121;-42
2022/12/09 05:48:02;;;;;;;36.40;13.15;;;;;;;4.56;69.21;100768.91;5031736;28;20124;-41
2022/12/09 05:50:28;;;;;;;33.88;12.52;;;;;;;4.83;68.36;100775.03;5031514;28;20053;-41
2022/12/09 05:52:53;;;;;;;38.35;13.23;;;;;;;4.85;67.71;100770.81;5031587;28;20026;-40
2022/12/09 05:55:18;;;;;;;31.38;11.57;;;;;;;4.72;68.31;100763.47;5031732;28;20021;-41
2022/12/09 05:57:44;;;;;;;33.13;12.18;;;;;;;4.73;67.71;100772.97;5031516;28;20026;-39
2022/12/09 06:00:10;;;;;;;38.60;12.80;;;;;;;4.87;67.83;100770.88;5031459;28;20021;-47
2022/12/09 06:02:35;;;;;;;36.45;12.93;;;;;;;4.64;68.46;100774.31;5031556;28;20033;-41
2022/12/09 06:05:01;;;;;;;40.65;14.10;;;;;;;4.49;68.70;100761.78;5031579;28;20025;-40
2022/12/09 06:07:27;;;;;;;41.58;14.40;;;;;;;4.75;67.65;100771.31;5031197;28;20096;-39
2022/12/09 06:09:52;;;;;;;45.28;15.35;;;;;;;4.63;67.90;100767.44;5031680;28;20037;-38
2022/12/09 06:12:17;;;;;;;43.42;14.52;;;;;;;4.58;68.51;100774.13;5031586;28;20421;-39
2022/12/09 06:14:43;;;;;;;47.47;14.20;;;;;;;4.52;69.22;100768.72;5031397;28;20500;-38
2022/12/09 06:17:08;;;;;;;42.83;15.02;;;;;;;4.74;68.50;100768.69;5030065;28;20029;-42
2022/12/09 06:19:33;;;;;;;41.05;14.00;;;;;;;4.81;68.48;100770.66;5030953;28;20089;-37
2022/12/09 06:21:59;;;;;;;41.50;14.27;;;;;;;4.76;69.01;100769.59;5031337;28;20021;-39
2022/12/09 06:24:24;;;;;;;37.50;13.65;;;;;;;4.63;69.05;100767.44;5031424;28;20472;-37
2022/12/09 06:26:52;;;;;;;36.70;13.73;;;;;;;4.53;69.26;100766.22;5030666;28;20017;-39
2022/12/09 06:29:17;;;;;;;35.72;12.98;;;;;;;4.66;69.41;100765.81;5031538;28;20036;-39
2022/12/09 06:31:43;;;;;;;42.60;13.32;;;;;;;4.74;68.62;100766.97;5030799;28;20396;-40
2022/12/09 06:34:08;;;;;;;38.13;13.30;;;;;;;4.72;68.24;100762.56;5031225;28;20508;-39
2022/12/09 06:36:33;;;;;;;38.38;13.23;;;;;;;4.63;68.37;100763.16;5031213;28;20028;-40
2022/12/09 06:39:01;;;;;;;38.70;13.05;;;;;;;4.45;69.26;100768.50;5031757;28;20025;-39
2022/12/09 06:41:26;;;;;;;40.50;13.45;;;;;;;4.41;69.58;100760.59;5038191;28;20025;-41
2022/12/09 06:43:51;;;;;;;36.35;13.35;;;;;;;4.31;69.17;100759.41;5038792;28;20091;-42
2022/12/09 06:46:19;;;;;;;38.03;12.98;;;;;;;4.21;69.13;100765.03;5038017;28;20325;-39
2022/12/09 06:48:45;;;;;;;39.97;12.90;;;;;;;4.04;70.26;100759.25;5030935;28;20036;-37
2022/12/09 06:51:10;;;;;;;41.30;13.13;;;;;;;3.99;70.97;100765.06;5030638;28;20017;-43
2022/12/09 06:53:36;;;;;;;40.40;13.45;;;;;;;4.28;70.12;100766.13;5030843;28;20029;-38
2022/12/09 06:56:06;;;;;;;39.13;13.48;;;;;;;4.48;69.01;100768.63;5030832;28;20108;-39
2022/12/09 06:58:32;;;;;;;41.05;13.32;;;;;;;4.54;68.41;100769.66;5031057;28;20624;-41
2022/12/09 07:01:04;;;;;;;39.08;12.88;;;;;;;4.32;68.85;100762.88;5030639;28;20017;-39
2022/12/09 07:03:29;;;;;;;39.22;13.07;;;;;;;4.41;69.06;100771.81;5029558;28;20400;-40
2022/12/09 07:05:55;;;;;;;40.53;12.90;;;;;;;4.46;68.58;100767.69;5030642;28;20029;-39
2022/12/09 07:08:20;;;;;;;40.10;11.98;;;;;;;4.48;67.97;100762.59;5045924;28;20045;-39
2022/12/09 07:10:45;;;;;;;39.35;13.20;;;;;;;4.45;68.47;100760.75;5030048;28;20024;-40
2022/12/09 07:13:11;;;;;;;41.65;13.50;;;;;;;4.12;69.33;100762.13;5030908;28;20065;-39
2022/12/09 07:15:36;;;;;;;43.53;13.65;;;;;;;3.99;70.14;100768.53;5030353;28;20026;-41
2022/12/09 07:18:01;;;;;;;42.65;14.48;;;;;;;4.02;70.66;100765.19;5030527;28;20048;-43
2022/12/09 07:20:26;;;;;;;49.10;14.02;;;;;;;4.03;70.51;100761.78;5030282;28;20059;-38
2022/12/09 07:22:52;;;;;;;44.65;13.38;;;;;;;4.20;69.66;100765.88;5030561;28;20132;-41
2022/12/09 07:25:17;;;;;;;41.35;12.85;;;;;;;4.25;69.25;100763.47;5030342;28;20021;-38
2022/12/09 07:27:42;;;;;;;42.35;13.20;;;;;;;4.29;69.23;100766.22;5030475;28;20037;-42
2022/12/09 07:30:08;;;;;;;49.63;13.82;;;;;;;4.29;68.88;100767.91;5030243;28;20052;-48
2022/12/09 07:32:33;;;;;;;45.53;13.60;;;;;;;4.38;68.88;100766.56;5030886;28;20056;-41
2022/12/09 07:34:58;;;;;;;40.25;13.70;;;;;;;4.26;69.00;100770.38;5030840;28;20461;-41
2022/12/09 07:37:24;;;;;;;40.55;13.20;;;;;;;4.33;68.79;100773.22;5030447;28;20105;-40
2022/12/09 07:39:49;;;;;;;52.13;14.85;;;;;;;4.32;69.30;100763.75;5030638;28;20013;-39
2022/12/09 07:42:14;;;;;;;44.00;14.02;;;;;;;4.39;68.73;100765.72;5045598;28;20397;-45
2022/12/09 07:44:40;;;;;;;53.00;14.25;;;;;;;4.28;69.99;100773.88;5030508;28;20021;-37
2022/12/09 07:47:05;;;;;;;98.70;15.48;;;;;;;3.86;70.13;100768.00;5030980;28;20030;-42
2022/12/09 07:49:30;;;;;;;59.28;14.65;;;;;;;3.84;71.47;100780.81;5031344;28;20029;-40
2022/12/09 07:51:55;;;;;;;79.13;15.43;;;;;;;4.12;70.10;100776.72;5031364;28;20025;-39
2022/12/09 07:54:21;;;;;;;59.08;14.55;;;;;;;4.36;69.63;100778.53;5031027;28;20029;-40
2022/12/09 07:56:46;;;;;;;56.97;14.00;;;;;;;4.42;69.71;100777.84;5032050;28;20025;-39
2022/12/09 07:59:13;;;;;;;82.45;15.13;;;;;;;4.37;70.08;100780.28;5033159;28;20025;-40
2022/12/09 08:01:39;;;;;;;62.50;14.25;;;;;;;4.42;69.68;100778.75;5032735;28;20022;-41
2022/12/09 08:04:05;;;;;;;77.10;15.30;;;;;;;4.52;70.15;100777.34;5032628;28;20404;-41
2022/12/09 08:06:31;;;;;;;73.95;14.93;;;;;;;4.58;69.69;100787.03;5032819;28;20036;-39
2022/12/09 08:09:02;;;;;;;67.13;14.70;;;;;;;4.48;69.61;100784.13;5032794;28;20018;-42
2022/12/09 08:11:30;;;;;;;119.50;15.90;;;;;;;4.52;69.61;100784.22;5034936;28;20074;-40
2022/12/09 08:14:00;;;;;;;60.05;15.50;;;;;;;4.53;69.85;100783.41;5033956;28;20073;-41
2022/12/09 08:16:26;;;;;;;207.35;16.15;;;;;;;4.24;69.87;100793.53;5032853;28;20029;-41
2022/12/09 08:18:53;;;;;;;63.80;16.10;;;;;;;4.28;71.30;100790.25;5036004;28;20478;-40
2022/12/09 08:21:25;;;;;;;110.75;17.48;;;;;;;4.18;71.22;100793.31;5033648;28;20022;-40
2022/12/09 08:23:51;;;;;;;59.50;15.88;;;;;;;4.40;71.15;100793.28;5032581;28;20030;-44
2022/12/09 08:26:20;;;;;;;109.28;16.67;;;;;;;4.26;70.49;100798.78;5030951;28;20436;-40
2022/12/09 08:28:46;;;;;;;86.75;15.82;;;;;;;4.42;70.65;100790.75;5030973;28;20485;-40
2022/12/09 08:31:15;;;;;;;65.20;17.05;;;;;;;4.63;70.27;100791.56;5030273;28;20486;-39
2022/12/09 08:33:41;;;;;;;63.05;17.00;;;;;;;4.79;69.75;100791.25;5030388;28;20771;-44
2022/12/09 08:36:13;;;;;;;61.97;16.35;;;;;;;4.75;69.51;100780.78;5030485;28;20029;-42
2022/12/09 08:38:38;;;;;;;58.15;16.63;;;;;;;4.88;69.98;100785.50;5030696;28;20071;-39
2022/12/09 08:41:11;;;;;;;59.50;15.95;;;;;;;4.98;69.25;100774.69;5029326;28;20025;-42
2022/12/09 08:43:38;;;;;;;60.85;16.67;;;;;;;4.90;69.71;100779.59;5029263;28;20465;-40
2022/12/09 08:46:03;;;;;;;61.28;17.48;;;;;;;4.96;69.90;100781.50;5029489;28;20030;-38
2022/12/09 08:48:29;;;;;;;69.93;17.63;;;;;;;4.89;69.82;100772.66;5029591;28;20036;-41
2022/12/09 08:50:54;;;;;;;63.97;17.65;;;;;;;4.65;70.63;100783.84;5030997;28;20021;-39
2022/12/09 08:53:19;;;;;;;62.83;17.13;;;;;;;4.86;70.66;100789.78;5033432;28;20476;-43
2022/12/09 08:55:45;;;;;;;60.58;18.52;;;;;;;5.06;69.45;100791.31;5033417;28;20025;-40
2022/12/09 08:58:10;;;;;;;48.80;15.93;;;;;;;5.15;69.32;100795.94;5035062;28;20485;-39
2022/12/09 09:00:36;;;;;;;55.90;16.13;;;;;;;5.15;68.93;100794.22;5034616;28;20265;-40
2022/12/09 09:03:01;;;;;;;58.08;17.67;;;;;;;5.13;69.19;100788.13;5035437;28;20041;-41
2022/12/09 09:05:27;;;;;;;54.42;16.73;;;;;;;5.22;68.83;100782.38;5035363;28;20049;-38
2022/12/09 09:07:52;;;;;;;52.00;16.20;;;;;;;5.19;68.88;100777.97;5034745;28;20029;-42
2022/12/09 09:10:18;;;;;;;51.63;16.35;;;;;;;5.23;68.43;100777.28;5033649;28;20025;-38
2022/12/09 09:12:43;;;;;;;55.72;16.85;;;;;;;5.13;69.24;100779.47;5033986;28;20126;-39
2022/12/09 09:15:09;;;;;;;53.45;16.20;;;;;;;5.24;68.63;100780.75;5034104;28;20021;-37
2022/12/09 09:17:34;;;;;;;58.60;16.65;;;;;;;5.14;69.04;100776.06;5033856;28;20071;-41
2022/12/09 09:19:59;;;;;;;51.33;15.98;;;;;;;5.24;68.46;100783.34;5057266;22;20037;-46
2022/12/09 09:22:26;;;;;;;52.53;16.75;;;;;;;5.17;68.88;100776.19;5055783;28;20459;-43
2022/12/09 09:24:52;;;;;;;50.65;16.52;;;;;;;5.29;69.15;100777.47;5055812;28;20029;-43
2022/12/09 09:27:18;;;;;;;46.55;16.38;;;;;;;5.32;69.05;100777.56;5056384;28;20052;-46
2022/12/09 09:29:44;;;;;;;50.40;17.30;;;;;;;5.08;69.45;100783.63;5056654;28;20336;-42
2022/12/09 09:32:09;;;;;;;60.60;18.13;;;;;;;5.10;69.47;100788.03;5055264;28;20029;-42
2022/12/09 09:34:34;;;;;;;60.90;18.63;;;;;;;5.07;70.44;100790.50;5054664;28;20024;-42
2022/12/09 09:37:00;;;;;;;62.20;19.35;;;;;;;5.02;70.20;100791.16;5055378;28;20025;-43
2022/12/09 09:39:25;;;;;;;58.42;18.67;;;;;;;5.30;69.94;100786.13;5054332;28;20024;-44
2022/12/09 09:42:00;;;;;;;57.33;18.60;;;;;;;5.43;69.50;100793.41;5051490;28;20405;-48
2022/12/09 09:44:38;;;;;;;57.00;19.00;;;;;;;5.11;70.23;100797.53;5051753;28;20025;-46
2022/12/09 09:47:15;;;;;;;62.15;19.50;;;;;;;4.94;70.35;100805.53;5051455;28;20440;-44
2022/12/09 09:49:46;;;;;;;58.90;19.90;;;;;;;5.19;70.42;100805.53;5051762;28;20035;-43
2022/12/09 09:52:18;;;;;;;57.15;18.92;;;;;;;5.35;70.34;100812.09;5051638;28;20078;-41
2022/12/09 09:54:43;;;;;;;55.75;19.38;;;;;;;5.14;69.59;100817.41;5051936;28;20060;-41
2022/12/09 09:57:14;;;;;;;54.40;19.10;;;;;;;5.55;69.37;100821.41;5051747;28;20052;-42
2022/12/09 10:00:02;;;;;;;50.45;18.33;;;;;;;5.76;68.82;100818.63;5050021;28;20276;-42
2022/12/09 10:03:07;;;;;;;48.95;18.88;;;;;;;5.64;68.48;100824.28;5050325;28;20067;-42
2022/12/09 10:05:37;;;;;;;51.50;18.70;;;;;;;5.77;68.43;100821.25;5051302;28;20032;-44
2022/12/09 10:08:44;;;;;;;48.88;19.10;;;;;;;5.53;68.35;100823.06;5051982;28;20021;-45
2022/12/09 10:11:22;;;;;;;55.90;19.73;;;;;;;5.88;68.63;100821.63;5009989;28;20144;-42
2022/12/09 10:13:50;;;;;;;49.03;18.95;;;;;;;5.97;68.00;100827.97;5010841;28;20561;-43
2022/12/09 10:16:21;;;;;;;48.03;18.38;;;;;;;6.00;68.88;100822.00;5034475;28;20039;-43
2022/12/09 10:19:21;;;;;;;54.95;19.35;;;;;;;6.14;68.32;100806.91;5052357;28;20037;-43
2022/12/09 10:21:49;;;;;;;48.60;19.25;;;;;;;6.43;67.81;100816.41;5043118;28;20056;-45
2022/12/09 10:24:22;;;;;;;51.22;19.85;;;;;;;6.37;67.58;100822.28;5051626;28;20120;-43
2022/12/09 10:27:15;;;;;;;49.83;20.08;;;;;;;6.36;67.43;100825.69;5051357;28;20405;-45
2022/12/09 10:29:51;;;;;;;49.30;19.35;;;;;;;6.71;66.94;100820.66;5051154;28;20027;-45
2022/12/09 10:32:19;;;;;;;47.20;19.52;;;;;;;6.82;65.80;100809.75;5051258;28;20499;-44
2022/12/09 10:34:46;;;;;;;48.20;20.67;;;;;;;6.63;65.51;100809.19;5051661;28;20091;-44
2022/12/09 10:37:29;;;;;;;45.17;20.67;;;;;;;6.60;65.30;100807.38;5051264;28;20423;-45
2022/12/09 10:40:00;;;;;;;48.78;21.27;;;;;;;6.59;65.26;100803.03;5051293;28;20036;-43
2022/12/09 10:45:12;;;;;;;51.28;20.42;;;;;;;6.72;65.57;100799.06;5051621;28;20036;-43
2022/12/09 10:47:38;;;;;;;47.30;21.45;;;;;;;6.01;66.95;100791.00;5051298;28;20021;-42
2022/12/09 10:50:04;;;;;;;48.30;22.23;;;;;;;5.92;66.61;100789.81;5052175;28;20132;-42
2022/12/09 10:52:44;;;;;;;51.40;21.70;;;;;;;6.36;66.47;100792.03;5056286;28;20013;-43
2022/12/09 10:55:23;;;;;;;52.88;21.85;;;;;;;6.58;66.52;100782.31;5057172;28;20021;-46
2022/12/09 10:57:49;;;;;;;51.03;20.92;;;;;;;6.71;66.30;100787.00;5055785;28;20167;-43
2022/12/09 11:00:23;;;;;;;49.72;22.15;;;;;;;6.66;66.04;100781.66;5050844;28;20021;-45
2022/12/09 11:02:54;;;;;;;48.80;20.85;;;;;;;6.27;66.14;100785.72;5050899;28;20481;-42
2022/12/09 11:05:28;;;;;;;52.00;21.45;;;;;;;6.16;66.60;100792.31;5051896;28;20025;-43
2022/12/09 11:07:55;;;;;;;;;;;;;;;6.34;66.68;100790.25;5053782;28;20029;-44
2022/12/09 11:10:23;;;;;;;51.30;21.50;;;;;;;6.39;67.97;100786.97;5050287;28;19908;-50
2022/12/09 11:12:55;;;;;;;52.75;21.75;;;;;;;6.28;67.77;100790.91;5050474;28;20060;-44
2022/12/09 11:15:36;;;;;;;51.47;21.58;;;;;;;6.19;67.82;100788.09;5050113;28;20033;-47
2022/12/09 11:18:05;;;;;;;55.03;22.73;;;;;;;5.78;69.71;100791.09;5050000;28;20469;-44
2022/12/09 11:20:33;;;;;;;61.30;23.25;;;;;;;5.96;68.83;100790.00;5049876;28;20025;-46
2022/12/09 11:23:05;;;;;;;52.88;22.30;;;;;;;6.75;66.95;100784.50;5048733;28;20025;-42
2022/12/09 11:25:33;;;;;;;54.47;22.38;;;;;;;7.00;66.02;100774.81;5050281;28;20473;-43
2022/12/09 11:28:02;;;;;;;55.80;23.02;;;;;;;7.28;65.60;100761.69;5050138;28;20493;-43
2022/12/09 11:30:35;;;;;;;51.03;22.02;;;;;;;7.02;64.05;100768.78;5049747;28;20107;-43